Terminal Aerodrome Forecast
Issued by NWS

Home | Current Version | Previous Version | Text Only | Print | Product List | Glossary On
Versions: 1 2 3 4 5 6 7 8 9 10 11 12 13 14 15 16 17 18 19 20 21 22 23 24 25 26 27
000
FTUS42 KMHX 041940 AAA
TAFPGV
TAF AMD
KPGV 041940Z 0420/0518 22010G15KT P6SM SCT060
     FM042100 22012KT P6SM SCT035
     FM050500 21010KT 3SM BR BKN005
     FM051500 04011KT P6SM -RA BKN010
      AMD LTD TO CLD VIS AND WIND=

USA.gov is the U.S. government's official web portal to all federal, state and local government web resources and services.